Terminal Aerodrome Forecast
Issued by NWS Twin Cities, MN

Home | Current Version | Previous Version | Text Only | Print | Product List | Glossary Off
Versions: 1 2 3 4 5 6 7 8 9 10 11 12 13 14 15 16 17 18 19 20 21 22 23 24 25

000
FTUS43 KMPX 241458 AAA
TAFMSP
TAF AMD
KMSP 241458Z 2415/2518 31012G19KT P6SM BKN025 OVC040
     FM241600 31018G30KT P6SM FEW030
     FM250100 31012KT P6SM FEW030 BKN200
     FM250700 34006KT P6SM FEW030 OVC110=

USA.gov is the U.S. government's official web portal to all federal, state and local government web resources and services.